Terminal Aerodrome Forecast
Issued by NWS

Home | Current Version | Previous Version | Text Only | Print | Product List | Glossary On
Versions: 1 2 3 4 5 6 7 8 9 10 11 12 13 14 15 16 17 18 19 20 21 22 23 24 25 26 27 28 29 30 31 32 33 34 35 36 37
000
FTUS41 KOKX 262341
TAFTEB
TAF
KTEB 262341Z 2700/2724 29010KT P6SM SCT060
     FM270200 26006KT P6SM FEW060
     FM270500 VRB03KT P6SM SKC
     FM271300 22008KT P6SM SCT120
     FM271600 23013G20KT P6SM SCT070 BKN100
     FM272300 21007KT P6SM BKN100=

USA.gov is the U.S. government's official web portal to all federal, state and local government web resources and services.